createdAt,value
2023-04-29T00:04:40.816Z,8.5
2023-04-29T00:14:46.656Z,8.4
2023-04-29T00:24:52.713Z,8.4
2023-04-29T00:34:58.725Z,8.4
2023-04-29T00:45:06.032Z,8.4
2023-04-29T00:55:10.845Z,8.4
2023-04-29T01:05:16.860Z,8.4
2023-04-29T01:15:22.916Z,8.3
2023-04-29T01:25:28.972Z,8.3
2023-04-29T01:35:35.019Z,8.3
2023-04-29T01:45:41.061Z,8.3
2023-04-29T01:55:47.101Z,8.3
2023-04-29T02:05:53.170Z,8.3
2023-04-29T02:15:59.263Z,8.3
2023-04-29T02:26:05.255Z,8.3
2023-04-29T02:36:11.311Z,8.2
2023-04-29T02:46:17.407Z,8.2
2023-04-29T02:56:23.487Z,8.2
2023-04-29T03:06:29.431Z,8.2
2023-04-29T03:16:35.562Z,8.2
2023-04-29T03:26:41.502Z,8.2
2023-04-29T03:36:47.551Z,8.2
2023-04-29T03:46:53.583Z,8.2
2023-04-29T03:56:59.646Z,8.2
2023-04-29T04:07:05.703Z,8.2
2023-04-29T04:17:11.758Z,8.2
2023-04-29T04:27:17.764Z,8.2
2023-04-29T04:37:23.827Z,8.2
2023-04-29T04:47:29.886Z,8.2
2023-04-29T04:57:35.951Z,8.2
2023-04-29T05:07:41.954Z,8.1
2023-04-29T05:17:48.064Z,8.1
2023-04-29T05:27:54.067Z,8.1
2023-04-29T05:38:00.108Z,8.1
2023-04-29T05:48:06.157Z,8.1
2023-04-29T05:58:12.213Z,8.1
2023-04-29T06:08:18.227Z,8
2023-04-29T06:18:24.273Z,8
2023-04-29T06:28:30.330Z,8
2023-04-29T06:38:36.353Z,8
2023-04-29T06:58:48.478Z,8
2023-04-29T07:08:56.882Z,8
2023-04-29T07:19:00.584Z,8
2023-04-29T07:29:06.604Z,8.1
2023-04-29T07:39:12.675Z,8.1
2023-04-29T07:49:18.674Z,8.1
2023-04-29T07:59:24.736Z,8.1
2023-04-29T08:09:30.757Z,8.1
2023-04-29T08:19:36.915Z,8.1
2023-04-29T08:29:42.893Z,8.1
2023-04-29T08:39:49.075Z,8.1
2023-04-29T08:49:55.141Z,8.1
2023-04-29T09:00:01.171Z,8.1
2023-04-29T09:10:07.038Z,8
2023-04-29T09:20:13.093Z,8
2023-04-29T09:30:19.198Z,8
2023-04-29T09:40:25.176Z,8
2023-04-29T09:50:31.232Z,8
2023-04-29T10:00:37.275Z,8
2023-04-29T10:10:43.323Z,8
2023-04-29T10:20:49.366Z,8
2023-04-29T10:30:55.517Z,7.9
2023-04-29T11:01:15.481Z,7.9
2023-04-29T11:11:21.467Z,7.9
2023-04-29T11:21:27.541Z,7.9
2023-04-29T11:41:39.631Z,7.9
2023-04-29T11:51:45.667Z,7.9
2023-04-29T12:01:51.708Z,7.9
2023-04-29T12:11:57.757Z,7.9
2023-04-29T12:22:03.809Z,7.9
2023-04-29T12:32:09.830Z,7.9
2023-04-29T12:42:15.877Z,7.9
2023-04-29T12:52:21.953Z,7.9
2023-04-29T13:02:28.069Z,7.9
2023-04-29T13:12:34.035Z,7.9
2023-04-29T13:22:40.115Z,7.9
2023-04-29T13:32:51.868Z,7.9
2023-04-29T13:43:02.064Z,7.9
2023-04-29T13:53:30.336Z,7.9
2023-04-29T14:03:04.333Z,7.9
2023-04-29T14:13:10.299Z,7.9
2023-04-29T14:23:16.342Z,7.9
2023-04-29T14:33:22.431Z,7.9
2023-04-29T14:43:28.454Z,7.9
2023-04-29T14:53:34.492Z,7.9
2023-04-29T15:03:44.207Z,7.9
2023-04-29T15:13:46.566Z,7.9
2023-04-29T15:23:52.673Z,7.8
2023-04-29T15:33:58.688Z,7.8
2023-04-29T15:44:04.715Z,7.8
2023-04-29T15:54:10.756Z,7.8
2023-04-29T16:04:16.835Z,7.8
2023-04-29T16:14:22.886Z,7.8
2023-04-29T16:24:28.931Z,7.8
2023-04-29T16:34:34.955Z,7.8
2023-04-29T16:44:40.992Z,7.8
2023-04-29T16:54:47.034Z,7.8
2023-04-29T17:04:53.219Z,7.8
2023-04-29T17:14:59.150Z,7.8
2023-04-29T17:25:05.181Z,7.8
2023-04-29T17:35:11.227Z,7.8
2023-04-29T17:45:17.273Z,7.8
2023-04-29T17:55:23.314Z,7.8
2023-04-29T18:05:29.366Z,7.8
2023-04-29T18:15:35.401Z,7.8
2023-04-29T18:25:41.454Z,7.8
2023-04-29T18:35:47.534Z,7.8
2023-04-29T18:45:53.584Z,7.7
2023-04-29T18:55:59.578Z,7.7
2023-04-29T19:06:05.657Z,7.7
2023-04-29T19:16:11.714Z,7.7
2023-04-29T19:26:17.723Z,7.7
2023-04-29T19:36:23.769Z,7.7
2023-04-29T19:46:29.917Z,7.7
2023-04-29T19:56:35.849Z,7.7
2023-04-29T20:16:48.138Z,7.6
2023-04-29T20:26:54.000Z,7.6
2023-04-29T20:37:00.071Z,7.6
2023-04-29T20:47:06.086Z,7.6
2023-04-29T20:57:12.158Z,7.6
2023-04-29T21:07:18.168Z,7.6
2023-04-29T21:17:24.263Z,7.6
2023-04-29T21:27:30.269Z,7.5
2023-04-29T21:47:44.322Z,7.5
2023-04-29T21:57:50.296Z,7.5
2023-04-29T22:07:56.339Z,7.5
2023-04-29T22:18:02.447Z,7.5
2023-04-29T22:28:08.735Z,7.5
2023-04-29T22:38:14.480Z,7.4
2023-04-29T22:48:20.522Z,7.4
2023-04-29T22:58:26.609Z,7.4
2023-04-29T23:08:32.607Z,7.4
2023-04-29T23:18:38.664Z,7.4
2023-04-29T23:28:44.697Z,7.4
2023-04-29T23:38:50.753Z,7.3
2023-04-29T23:48:56.798Z,7.3
2023-04-29T23:59:02.848Z,7.3
